Terminal Aerodrome Forecast
Issued by NWS Charleston, WV

Current Version | Previous Version | Text Only | Print | Product List | Glossary Off
Versions: 1 2 3 4 5 6 7 8 9 10 11 12 13 14 15 16 17 18 19 20 21 22 23 24

000
FTUS41 KRLX 022022 AAA
TAFEKN
TAF AMD
KEKN 022022Z 0220/0318 25010KT P6SM OVC015
      TEMPO 0222/0301 2SM -RASN BR
     FM030200 28010KT P6SM -SHSN OVC020
     FM030600 29009KT P6SM OVC025=

USA.gov is the U.S. government's official web portal to all federal, state and local government web resources and services.